| time (UTC) | temp C | wind direction | speed KPH | gust KPH | rain 1hr cm | rain 24hr cm | rain mn cm | humidity % | barometer mb |
| 20260504081546 | 9 | 290 | 0.0 | 4.8 | 0.00 | 0.00 | 0.00 | 77 | 1017.2 |
| 20260504081026 | 9 | 290 | 1.6 | 4.8 | 0.00 | 0.00 | 0.00 | 77 | 1017.3 |
| 20260504080526 | 9 | 0 | 1.6 | 4.8 | 0.00 | 0.00 | 0.00 | 78 | 1017.4 |
| 20260504050527 | 13 | 279 | 3.2 | 14.5 | 0.00 | 0.00 | 0.00 | 59 | 1018.3 |
| 20260504045527 | 13 | 213 | 4.8 | 19.3 | 0.00 | 0.00 | 0.00 | 59 | 1018.3 |
| 20260504045029 | 13 | 207 | 3.2 | 14.5 | 0.00 | 0.00 | 0.00 | 59 | 1018.2 |
| 20260504044552 | 13 | 227 | 4.8 | 24.1 | 0.00 | 0.00 | 0.00 | 58 | 1018.2 |
| 20260504044031 | 13 | 202 | 4.8 | 24.1 | 0.00 | 0.00 | 0.00 | 58 | 1018.3 |
| 20260504043527 | 13 | 214 | 6.4 | 17.7 | 0.00 | 0.00 | 0.00 | 58 | 1018.3 |
| 20260504043040 | 13 | 230 | 4.8 | 17.7 | 0.00 | 0.00 | 0.00 | 58 | 1018.4 |
| 20260504042528 | 13 | 205 | 4.8 | 16.1 | 0.00 | 0.00 | 0.00 | 57 | 1018.4 |
| 20260504042027 | 13 | 200 | 4.8 | 16.1 | 0.00 | 0.00 | 0.00 | 57 | 1018.5 |
| 20260504041546 | 13 | 140 | 4.8 | 16.1 | 0.00 | 0.00 | 0.00 | 57 | 1018.4 |
| 20260504041027 | 14 | 227 | 6.4 | 14.5 | 0.00 | 0.00 | 0.00 | 56 | 1018.3 |
| 20260504040527 | 14 | 153 | 4.8 | 16.1 | 0.00 | 0.00 | 0.00 | 56 | 1018.4 |
| 20260504035527 | 13 | 219 | 6.4 | 20.9 | 0.00 | 0.00 | 0.00 | 56 | 1018.5 |
| 20260504035027 | 13 | 173 | 8.0 | 20.9 | 0.00 | 0.00 | 0.00 | 56 | 1018.5 |
| 20260504034555 | 13 | 240 | 3.2 | 17.7 | 0.00 | 0.00 | 0.00 | 57 | 1018.6 |
| 20260504034027 | 13 | 225 | 4.8 | 17.7 | 0.00 | 0.00 | 0.00 | 57 | 1018.5 |
| 20260504033527 | 14 | 232 | 3.2 | 14.5 | 0.00 | 0.00 | 0.00 | 56 | 1018.5 |
| 20260504033052 | 14 | 159 | 4.8 | 14.5 | 0.00 | 0.00 | 0.00 | 56 | 1018.5 |
| 20260504032528 | 14 | 174 | 4.8 | 11.3 | 0.00 | 0.00 | 0.00 | 56 | 1018.5 |
| 20260504032029 | 14 | 215 | 3.2 | 12.9 | 0.00 | 0.00 | 0.00 | 55 | 1018.6 |
| 20260504031543 | 14 | 211 | 4.8 | 14.5 | 0.00 | 0.00 | 0.00 | 55 | 1018.7 |
| 20260504031026 | 14 | 238 | 4.8 | 14.5 | 0.00 | 0.00 | 0.00 | 55 | 1018.9 |
| 20260504030527 | 14 | 154 | 3.2 | 14.5 | 0.00 | 0.00 | 0.00 | 56 | 1018.8 |
| 20260504030047 | 13 | 132 | 3.2 | 14.5 | 0.00 | 0.00 | 0.00 | 56 | 1018.9 |
| 20260504025531 | 13 | 205 | 3.2 | 14.5 | 0.00 | 0.00 | 0.00 | 57 | 1018.8 |
| 20260504025027 | 13 | 200 | 4.8 | 12.9 | 0.00 | 0.00 | 0.00 | 57 | 1018.7 |
| 20260504024544 | 13 | 117 | 1.6 | 8.0 | 0.00 | 0.00 | 0.00 | 58 | 1018.7 |
| 20260504024027 | 14 | 238 | 3.2 | 11.3 | 0.00 | 0.00 | 0.00 | 56 | 1018.8 |
| 20260504023527 | 14 | 221 | 1.6 | 11.3 | 0.00 | 0.00 | 0.00 | 55 | 1018.7 |
| 20260504023057 | 14 | 190 | 3.2 | 11.3 | 0.00 | 0.00 | 0.00 | 56 | 1018.6 |
| 20260504022527 | 13 | 224 | 4.8 | 17.7 | 0.00 | 0.00 | 0.00 | 57 | 1018.6 |
| 20260504022027 | 12 | 140 | 4.8 | 17.7 | 0.00 | 0.00 | 0.00 | 59 | 1018.5 |
| 20260504021546 | 11 | 208 | 4.8 | 17.7 | 0.00 | 0.00 | 0.00 | 64 | 1018.5 |
| 20260504021028 | 10 | 234 | 3.2 | 9.7 | 0.00 | 0.00 | 0.00 | 67 | 1018.4 |
| 20260504020527 | 10 | 0 | 1.6 | 9.7 | 0.00 | 0.00 | 0.00 | 72 | 1018.3 |
| 20260504020052 | 10 | 0 | 0.0 | 1.6 | 0.00 | 0.00 | 0.00 | 75 | 1018.3 |
| 20260504015528 | 10 | 0 | 0.0 | 1.6 | 0.00 | 0.00 | 0.00 | 75 | 1018.3 |
| 20260504015028 | 10 | 0 | 0.0 | 1.6 | 0.00 | 0.00 | 0.00 | 74 | 1018.3 |
| 20260504014549 | 10 | 0 | 0.0 | 0.0 | 0.00 | 0.00 | 0.00 | 72 | 1018.3 |
| 20260504014027 | 11 | 0 | 0.0 | 0.0 | 0.00 | 0.00 | 0.00 | 70 | 1018.3 |
| 20260504013529 | 11 | 0 | 0.0 | 0.0 | 0.00 | 0.00 | 0.00 | 69 | 1018.2 |
| 20260504013047 | 11 | 0 | 0.0 | 0.0 | 0.00 | 0.00 | 0.00 | 68 | 1018.2 |
| 20260504012527 | 11 | 0 | 0.0 | 0.0 | 0.00 | 0.00 | 0.00 | 66 | 1018.3 |
| 20260504012027 | 12 | 0 | 0.0 | 0.0 | 0.00 | 0.00 | 0.00 | 65 | 1018.3 |
| 20260504011540 | 12 | 0 | 0.0 | 0.0 | 0.00 | 0.00 | 0.00 | 62 | 1018.3 |
| 20260504011027 | 13 | 0 | 0.0 | 1.6 | 0.00 | 0.00 | 0.00 | 61 | 1018.2 |
| 20260504010527 | 13 | 0 | 0.0 | 4.8 | 0.00 | 0.00 | 0.00 | 58 | 1018.2 |
| 20260504010047 | 13 | 0 | 0.0 | 4.8 | 0.00 | 0.00 | 0.00 | 60 | 1018.3 |
| 20260504005528 | 14 | 0 | 1.6 | 4.8 | 0.00 | 0.00 | 0.00 | 55 | 1018.2 |
| 20260504005027 | 14 | 0 | 0.0 | 3.2 | 0.00 | 0.00 | 0.00 | 52 | 1018.2 |
| 20260504004600 | 15 | 0 | 0.0 | 3.2 | 0.00 | 0.00 | 0.00 | 54 | 1018.3 |
| 20260504004027 | 15 | 0 | 0.0 | 3.2 | 0.00 | 0.00 | 0.00 | 52 | 1018.2 |
| 20260504003527 | 15 | 0 | 0.0 | 6.4 | 0.00 | 0.00 | 0.00 | 51 | 1018.2 |
| 20260504003045 | 15 | 213 | 1.6 | 6.4 | 0.00 | 0.00 | 0.00 | 50 | 1018.2 |
| 20260504002527 | 16 | 213 | 1.6 | 6.4 | 0.00 | 0.00 | 0.00 | 52 | 1018.2 |
| 20260504002027 | 16 | 250 | 1.6 | 3.2 | 0.00 | 0.00 | 0.00 | 52 | 1018.3 |
| 20260504001544 | 17 | 250 | 1.6 | 3.2 | 0.00 | 0.00 | 0.00 | 50 | 1018.3 |
| 20260504001027 | 17 | 250 | 1.6 | 4.8 | 0.00 | 0.00 | 0.00 | 46 | 1018.4 |
| 20260504000527 | 17 | 250 | 0.0 | 4.8 | 0.00 | 0.00 | 0.00 | 46 | 1018.4 |
| 20260504000044 | 17 | 0 | 1.6 | 4.8 | 0.00 | 0.00 | 0.00 | 46 | 1018.4 |
| 20260503235529 | 17 | 0 | 1.6 | 4.8 | 0.00 | 0.00 | 0.00 | 44 | 1018.4 |
| 20260503235027 | 18 | 235 | 1.6 | 8.0 | 0.00 | 0.00 | 0.00 | 44 | 1018.4 |
| 20260503234547 | 18 | 239 | 1.6 | 11.3 | 0.00 | 0.00 | 0.00 | 44 | 1018.4 |
| 20260503234029 | 18 | 240 | 1.6 | 11.3 | 0.00 | 0.00 | 0.00 | 43 | 1018.4 |
| 20260503233529 | 18 | 198 | 3.2 | 9.7 | 0.00 | 0.00 | 0.00 | 42 | 1018.4 |
| 20260503233047 | 18 | 250 | 3.2 | 11.3 | 0.00 | 0.00 | 0.00 | 42 | 1018.4 |
| 20260503232527 | 18 | 0 | 4.8 | 12.9 | 0.00 | 0.00 | 0.00 | 41 | 1018.3 |
| 20260503232027 | 18 | 208 | 4.8 | 12.9 | 0.00 | 0.00 | 0.00 | 40 | 1018.3 |
| 20260503231549 | 18 | 149 | 3.2 | 12.9 | 0.00 | 0.00 | 0.00 | 40 | 1018.4 |
| 20260503231028 | 19 | 132 | 3.2 | 12.9 | 0.00 | 0.00 | 0.00 | 38 | 1018.4 |
| 20260503230528 | 19 | 209 | 3.2 | 11.3 | 0.00 | 0.00 | 0.00 | 38 | 1018.4 |
| 20260503230044 | 19 | 213 | 4.8 | 11.3 | 0.00 | 0.00 | 0.00 | 38 | 1018.5 |
| 20260503225527 | 19 | 216 | 1.6 | 14.5 | 0.00 | 0.00 | 0.00 | 41 | 1018.6 |
| 20260503225027 | 19 | 254 | 4.8 | 14.5 | 0.00 | 0.00 | 0.00 | 38 | 1018.6 |
| 20260503224541 | 19 | 229 | 3.2 | 14.5 | 0.00 | 0.00 | 0.00 | 39 | 1018.7 |
| 20260503224027 | 19 | 205 | 3.2 | 14.5 | 0.00 | 0.00 | 0.00 | 38 | 1018.9 |
| 20260503223530 | 19 | 0 | 1.6 | 14.5 | 0.00 | 0.00 | 0.00 | 40 | 1019.0 |
| 20260503223043 | 19 | 225 | 6.4 | 16.1 | 0.00 | 0.00 | 0.00 | 38 | 1019.1 |
| 20260503222527 | 20 | 218 | 6.4 | 16.1 | 0.00 | 0.00 | 0.00 | 37 | 1019.1 |
| 20260503222026 | 20 | 217 | 3.2 | 11.3 | 0.00 | 0.00 | 0.00 | 38 | 1019.3 |
| 20260503221551 | 20 | 196 | 1.6 | 11.3 | 0.00 | 0.00 | 0.00 | 42 | 1019.3 |
| 20260503221027 | 20 | 252 | 3.2 | 11.3 | 0.00 | 0.00 | 0.00 | 39 | 1019.3 |
| 20260503220527 | 20 | 240 | 4.8 | 11.3 | 0.00 | 0.00 | 0.00 | 37 | 1019.3 |
| 20260503220047 | 20 | 0 | 0.0 | 8.0 | 0.00 | 0.00 | 0.00 | 41 | 1019.4 |
| 20260503215526 | 20 | 307 | 3.2 | 14.5 | 0.00 | 0.00 | 0.00 | 41 | 1019.3 |
| 20260503215026 | 20 | 344 | 3.2 | 14.5 | 0.00 | 0.00 | 0.00 | 42 | 1019.5 |
| 20260503214544 | 20 | 350 | 1.6 | 12.9 | 0.00 | 0.00 | 0.00 | 43 | 1019.4 |
| 20260503214027 | 20 | 281 | 3.2 | 11.3 | 0.00 | 0.00 | 0.00 | 38 | 1019.5 |
| 20260503213527 | 20 | 336 | 3.2 | 11.3 | 0.00 | 0.00 | 0.00 | 41 | 1019.6 |
| 20260503213059 | 20 | 0 | 1.6 | 12.9 | 0.00 | 0.00 | 0.00 | 40 | 1019.6 |
| 20260503212527 | 20 | 286 | 3.2 | 12.9 | 0.00 | 0.00 | 0.00 | 41 | 1019.6 |
| 20260503212026 | 19 | 273 | 1.6 | 11.3 | 0.00 | 0.00 | 0.00 | 41 | 1019.6 |
| 20260503211542 | 19 | 35 | 1.6 | 12.9 | 0.00 | 0.00 | 0.00 | 40 | 1019.7 |
| 20260503211027 | 19 | 175 | 4.8 | 12.9 | 0.00 | 0.00 | 0.00 | 38 | 1019.8 |
| 20260503210527 | 19 | 312 | 3.2 | 12.9 | 0.00 | 0.00 | 0.00 | 37 | 1019.8 |
| 20260503210055 | 19 | 0 | 0.0 | 14.5 | 0.00 | 0.00 | 0.00 | 41 | 1019.9 |
| 20260503205529 | 19 | 153 | 6.4 | 14.5 | 0.00 | 0.00 | 0.00 | 39 | 1020.1 |
| 20260503205029 | 19 | 236 | 3.2 | 9.7 | 0.00 | 0.00 | 0.00 | 39 | 1020.2 |
| 20260503204552 | 19 | 0 | 3.2 | 9.7 | 0.00 | 0.00 | 0.00 | 39 | 1020.3 |
| 20260503204026 | 19 | 331 | 1.6 | 14.5 | 0.00 | 0.00 | 0.00 | 36 | 1020.4 |
| 20260503203526 | 18 | 0 | 3.2 | 14.5 | 0.00 | 0.00 | 0.00 | 44 | 1020.6 |
| 20260503203043 | 18 | 221 | 4.8 | 14.5 | 0.00 | 0.00 | 0.00 | 37 | 1020.6 |
| 20260503202526 | 18 | 213 | 4.8 | 16.1 | 0.00 | 0.00 | 0.00 | 37 | 1020.7 |
| 20260503202029 | 18 | 318 | 3.2 | 22.5 | 0.00 | 0.00 | 0.00 | 42 | 1020.8 |
| 20260503201542 | 18 | 350 | 8.0 | 22.5 | 0.00 | 0.00 | 0.00 | 37 | 1021.0 |
| 20260503201026 | 18 | 37 | 3.2 | 20.9 | 0.00 | 0.00 | 0.00 | 39 | 1020.9 |
| 20260503200529 | 18 | 218 | 6.4 | 20.9 | 0.00 | 0.00 | 0.00 | 35 | 1021.0 |
| 20260503200044 | 18 | 209 | 8.0 | 16.1 | 0.00 | 0.00 | 0.00 | 35 | 1021.1 |
| 20260503195529 | 18 | 271 | 1.6 | 11.3 | 0.00 | 0.00 | 0.00 | 38 | 1021.2 |
| 20260503195026 | 18 | 261 | 3.2 | 16.1 | 0.00 | 0.00 | 0.00 | 43 | 1021.3 |
| 20260503194547 | 18 | 216 | 6.4 | 17.7 | 0.00 | 0.00 | 0.00 | 37 | 1021.4 |
| 20260503194029 | 18 | 0 | 0.0 | 17.7 | 0.00 | 0.00 | 0.00 | 42 | 1021.4 |
| 20260503193529 | 18 | 208 | 4.8 | 12.9 | 0.00 | 0.00 | 0.00 | 40 | 1021.6 |
| 20260503193053 | 18 | 219 | 3.2 | 16.1 | 0.00 | 0.00 | 0.00 | 38 | 1021.5 |
| 20260503192528 | 18 | 219 | 6.4 | 16.1 | 0.00 | 0.00 | 0.00 | 36 | 1021.7 |
| 20260503192029 | 18 | 206 | 6.4 | 14.5 | 0.00 | 0.00 | 0.00 | 35 | 1021.6 |
| 20260503191544 | 18 | 321 | 4.8 | 11.3 | 0.00 | 0.00 | 0.00 | 39 | 1021.6 |
| 20260503191028 | 18 | 230 | 1.6 | 19.3 | 0.00 | 0.00 | 0.00 | 44 | 1021.6 |
| 20260503190528 | 18 | 218 | 3.2 | 19.3 | 0.00 | 0.00 | 0.00 | 43 | 1021.6 |
| 20260503190043 | 17 | 306 | 1.6 | 12.9 | 0.00 | 0.00 | 0.00 | 43 | 1021.7 |
| 20260503185528 | 17 | 46 | 3.2 | 12.9 | 0.00 | 0.00 | 0.00 | 38 | 1021.8 |
| 20260503185028 | 17 | 310 | 3.2 | 12.9 | 0.00 | 0.00 | 0.00 | 46 | 1022.0 |
| 20260503184552 | 17 | 257 | 4.8 | 17.7 | 0.00 | 0.00 | 0.00 | 42 | 1022.0 |
| 20260503184027 | 17 | 285 | 6.4 | 17.7 | 0.00 | 0.00 | 0.00 | 39 | 1022.1 |
| 20260503183527 | 17 | 230 | 1.6 | 12.9 | 0.00 | 0.00 | 0.00 | 42 | 1022.1 |
| 20260503183102 | 17 | 211 | 3.2 | 12.9 | 0.00 | 0.00 | 0.00 | 42 | 1022.1 |
| 20260503182528 | 17 | 243 | 4.8 | 9.7 | 0.00 | 0.00 | 0.00 | 39 | 1022.2 |
| 20260503182030 | 17 | 243 | 3.2 | 14.5 | 0.00 | 0.00 | 0.00 | 40 | 1022.3 |
| 20260503181547 | 17 | 0 | 3.2 | 14.5 | 0.00 | 0.00 | 0.00 | 46 | 1022.4 |
| 20260503181029 | 17 | 298 | 4.8 | 11.3 | 0.00 | 0.00 | 0.00 | 42 | 1022.4 |
| 20260503180529 | 17 | 263 | 3.2 | 9.7 | 0.00 | 0.00 | 0.00 | 42 | 1022.4 |
| 20260503180047 | 17 | 0 | 1.6 | 14.5 | 0.00 | 0.00 | 0.00 | 40 | 1022.5 |
| 20260503175526 | 16 | 0 | 1.6 | 16.1 | 0.00 | 0.00 | 0.00 | 43 | 1022.6 |
| 20260503175028 | 16 | 243 | 6.4 | 16.1 | 0.00 | 0.00 | 0.00 | 41 | 1022.8 |
| 20260503174543 | 16 | 146 | 3.2 | 12.9 | 0.00 | 0.00 | 0.00 | 45 | 1022.9 |
| 20260503174026 | 16 | 159 | 4.8 | 12.9 | 0.00 | 0.00 | 0.00 | 44 | 1023.0 |
| 20260503173527 | 16 | 115 | 3.2 | 11.3 | 0.00 | 0.00 | 0.00 | 42 | 1023.1 |
| 20260503173108 | 16 | 281 | 3.2 | 11.3 | 0.00 | 0.00 | 0.00 | 45 | 1023.1 |
| 20260503172531 | 16 | 0 | 0.0 | 6.4 | 0.00 | 0.00 | 0.00 | 47 | 1023.1 |
| 20260503172028 | 16 | 355 | 1.6 | 6.4 | 0.00 | 0.00 | 0.00 | 45 | 1023.2 |
| 20260503171549 | 16 | 93 | 1.6 | 6.4 | 0.00 | 0.00 | 0.00 | 46 | 1023.3 |
| 20260503171029 | 15 | 74 | 1.6 | 9.7 | 0.00 | 0.00 | 0.00 | 44 | 1023.3 |
| 20260503170529 | 15 | 133 | 1.6 | 11.3 | 0.00 | 0.00 | 0.00 | 45 | 1023.3 |
| 20260503150529 | 13 | 312 | 1.6 | 6.4 | 0.00 | 0.00 | 0.00 | 45 | 1024.3 |
| 20260503131028 | 7 | 30 | 0.0 | 3.2 | 0.00 | 0.00 | 0.00 | 96 | 1024.1 |
| 20260503130528 | 6 | 30 | 0.0 | 3.2 | 0.00 | 0.00 | 0.00 | 96 | 1024.1 |
| 20260503110528 | 2 | 0 | 0.0 | 0.0 | 0.00 | 0.00 | 0.00 | 94 | 1023.1 |